sensor_id;sensor_type;location;lat;lon;timestamp;pressure;altitude;pressure_sealevel;temperature;humidity
23229;BME280;11783;50.350;6.576;2023-04-02T00:00:36;95243.47;;;7.09;100.00
23229;BME280;11783;50.350;6.576;2023-04-02T00:03:22;95243.31;;;7.21;100.00
23229;BME280;11783;50.350;6.576;2023-04-02T00:05:47;95244.63;;;7.18;100.00
23229;BME280;11783;50.350;6.576;2023-04-02T00:08:25;95250.34;;;7.32;100.00
23229;BME280;11783;50.350;6.576;2023-04-02T00:10:54;95251.19;;;7.38;100.00
23229;BME280;11783;50.350;6.576;2023-04-02T00:13:33;95254.94;;;7.42;100.00
23229;BME280;11783;50.350;6.576;2023-04-02T00:16:00;95248.38;;;7.44;100.00
23229;BME280;11783;50.350;6.576;2023-04-02T00:18:27;95256.31;;;7.44;100.00
23229;BME280;11783;50.350;6.576;2023-04-02T00:21:06;95267.19;;;7.48;100.00
23229;BME280;11783;50.350;6.576;2023-04-02T00:23:39;95268.28;;;7.52;100.00
23229;BME280;11783;50.350;6.576;2023-04-02T00:26:24;95261.16;;;7.52;100.00
23229;BME280;11783;50.350;6.576;2023-04-02T00:28:53;95259.06;;;7.54;100.00
23229;BME280;11783;50.350;6.576;2023-04-02T00:31:19;95264.66;;;7.58;100.00
23229;BME280;11783;50.350;6.576;2023-04-02T00:33:45;95265.88;;;7.50;100.00
23229;BME280;11783;50.350;6.576;2023-04-02T00:36:11;95272.53;;;7.31;100.00
23229;BME280;11783;50.350;6.576;2023-04-02T00:38:36;95272.69;;;7.24;100.00
23229;BME280;11783;50.350;6.576;2023-04-02T00:41:04;95279.81;;;6.85;100.00
23229;BME280;11783;50.350;6.576;2023-04-02T00:43:34;95278.28;;;7.06;100.00
23229;BME280;11783;50.350;6.576;2023-04-02T00:46:03;95278.97;;;7.18;100.00
23229;BME280;11783;50.350;6.576;2023-04-02T00:51:23;95288.91;;;6.89;100.00
23229;BME280;11783;50.350;6.576;2023-04-02T00:53:52;95286.63;;;6.98;100.00
23229;BME280;11783;50.350;6.576;2023-04-02T00:56:27;95289.66;;;7.07;100.00
23229;BME280;11783;50.350;6.576;2023-04-02T00:58:55;95291.16;;;7.03;100.00
23229;BME280;11783;50.350;6.576;2023-04-02T01:01:25;95290.94;;;7.04;100.00
23229;BME280;11783;50.350;6.576;2023-04-02T01:03:56;95294.88;;;7.23;100.00
23229;BME280;11783;50.350;6.576;2023-04-02T01:06:34;95298.78;;;7.38;100.00
23229;BME280;11783;50.350;6.576;2023-04-02T01:14:58;95306.16;;;7.57;100.00
23229;BME280;11783;50.350;6.576;2023-04-02T01:25:44;95323.13;;;7.62;100.00
23229;BME280;11783;50.350;6.576;2023-04-02T01:28:27;95321.22;;;7.57;100.00
23229;BME280;11783;50.350;6.576;2023-04-02T01:30:57;95318.31;;;7.58;100.00
23229;BME280;11783;50.350;6.576;2023-04-02T01:33:29;95320.47;;;7.01;100.00
23229;BME280;11783;50.350;6.576;2023-04-02T01:39:02;95328.94;;;7.42;100.00
23229;BME280;11783;50.350;6.576;2023-04-02T01:41:47;95340.16;;;7.49;100.00
23229;BME280;11783;50.350;6.576;2023-04-02T01:44:25;95341.63;;;7.40;100.00
23229;BME280;11783;50.350;6.576;2023-04-02T01:46:52;95352.09;;;6.79;100.00
23229;BME280;11783;50.350;6.576;2023-04-02T01:49:19;95348.28;;;6.53;100.00
23229;BME280;11783;50.350;6.576;2023-04-02T01:51:51;95352.75;;;6.70;100.00
23229;BME280;11783;50.350;6.576;2023-04-02T01:54:18;95351.00;;;6.92;100.00
23229;BME280;11783;50.350;6.576;2023-04-02T01:56:44;95354.50;;;7.14;100.00
23229;BME280;11783;50.350;6.576;2023-04-02T01:59:11;95362.88;;;7.28;100.00
23229;BME280;11783;50.350;6.576;2023-04-02T02:01:44;95364.72;;;7.27;100.00
23229;BME280;11783;50.350;6.576;2023-04-02T02:04:13;95363.81;;;7.39;100.00
23229;BME280;11783;50.350;6.576;2023-04-02T02:06:40;95372.38;;;7.46;100.00
23229;BME280;11783;50.350;6.576;2023-04-02T02:09:06;95380.78;;;7.43;100.00
23229;BME280;11783;50.350;6.576;2023-04-02T02:11:36;95382.44;;;7.27;100.00
23229;BME280;11783;50.350;6.576;2023-04-02T02:14:14;95386.28;;;7.19;100.00
23229;BME280;11783;50.350;6.576;2023-04-02T02:16:40;95393.16;;;7.20;100.00
23229;BME280;11783;50.350;6.576;2023-04-02T02:19:10;95390.94;;;7.12;100.00
23229;BME280;11783;50.350;6.576;2023-04-02T02:21:45;95397.00;;;6.96;100.00
23229;BME280;11783;50.350;6.576;2023-04-02T02:24:27;95395.97;;;6.80;100.00
23229;BME280;11783;50.350;6.576;2023-04-02T02:29:52;95405.06;;;6.56;100.00
23229;BME280;11783;50.350;6.576;2023-04-02T02:32:21;95411.97;;;6.74;100.00
23229;BME280;11783;50.350;6.576;2023-04-02T02:34:54;95415.09;;;6.87;100.00
23229;BME280;11783;50.350;6.576;2023-04-02T02:37:28;95417.25;;;6.74;100.00
23229;BME280;11783;50.350;6.576;2023-04-02T02:39:57;95420.78;;;6.96;100.00
23229;BME280;11783;50.350;6.576;2023-04-02T02:42:34;95424.59;;;6.55;100.00
23229;BME280;11783;50.350;6.576;2023-04-02T02:45:04;95423.44;;;6.22;100.00
23229;BME280;11783;50.350;6.576;2023-04-02T02:47:33;95429.34;;;6.41;100.00
23229;BME280;11783;50.350;6.576;2023-04-02T02:50:06;95431.78;;;6.59;100.00
23229;BME280;11783;50.350;6.576;2023-04-02T02:52:37;95436.06;;;6.49;100.00
23229;BME280;11783;50.350;6.576;2023-04-02T02:55:13;95435.78;;;6.62;100.00
23229;BME280;11783;50.350;6.576;2023-04-02T02:57:47;95438.22;;;6.80;100.00
23229;BME280;11783;50.350;6.576;2023-04-02T03:00:14;95449.09;;;6.84;100.00
23229;BME280;11783;50.350;6.576;2023-04-02T03:02:42;95451.09;;;6.77;100.00
23229;BME280;11783;50.350;6.576;2023-04-02T03:05:18;95448.81;;;6.97;100.00
23229;BME280;11783;50.350;6.576;2023-04-02T03:07:45;95450.59;;;7.08;100.00
23229;BME280;11783;50.350;6.576;2023-04-02T03:15:31;95477.91;;;7.31;100.00
23229;BME280;11783;50.350;6.576;2023-04-02T03:18:15;95479.00;;;7.35;100.00
23229;BME280;11783;50.350;6.576;2023-04-02T03:20:48;95483.75;;;7.33;100.00
23229;BME280;11783;50.350;6.576;2023-04-02T03:23:32;95491.97;;;7.36;100.00
23229;BME280;11783;50.350;6.576;2023-04-02T03:28:46;95498.06;;;7.37;100.00
23229;BME280;11783;50.350;6.576;2023-04-02T03:34:07;95506.53;;;7.05;100.00
23229;BME280;11783;50.350;6.576;2023-04-02T03:36:57;95513.19;;;7.24;100.00
23229;BME280;11783;50.350;6.576;2023-04-02T03:42:28;95520.56;;;7.22;100.00
23229;BME280;11783;50.350;6.576;2023-04-02T03:45:06;95526.66;;;7.23;100.00
23229;BME280;11783;50.350;6.576;2023-04-02T03:47:39;95529.22;;;7.18;100.00
23229;BME280;11783;50.350;6.576;2023-04-02T03:50:26;95529.22;;;7.18;100.00
23229;BME280;11783;50.350;6.576;2023-04-02T03:52:56;95543.78;;;7.20;100.00
23229;BME280;11783;50.350;6.576;2023-04-02T03:55:30;95545.94;;;7.23;100.00
23229;BME280;11783;50.350;6.576;2023-04-02T03:58:13;95555.56;;;7.13;100.00
23229;BME280;11783;50.350;6.576;2023-04-02T04:00:45;95555.47;;;7.08;100.00
23229;BME280;11783;50.350;6.576;2023-04-02T04:03:20;95555.31;;;7.14;100.00
23229;BME280;11783;50.350;6.576;2023-04-02T04:05:58;95569.16;;;7.21;100.00
23229;BME280;11783;50.350;6.576;2023-04-02T04:11:25;95584.19;;;6.76;100.00
23229;BME280;11783;50.350;6.576;2023-04-02T04:14:06;95580.56;;;6.93;100.00
23229;BME280;11783;50.350;6.576;2023-04-02T04:19:45;95591.13;;;6.93;100.00
23229;BME280;11783;50.350;6.576;2023-04-02T04:22:24;95594.00;;;6.92;100.00
23229;BME280;11783;50.350;6.576;2023-04-02T04:24:59;95596.75;;;6.97;100.00
23229;BME280;11783;50.350;6.576;2023-04-02T04:27:30;95602.44;;;6.77;100.00
23229;BME280;11783;50.350;6.576;2023-04-02T04:30:06;95603.91;;;6.85;100.00
23229;BME280;11783;50.350;6.576;2023-04-02T04:32:44;95617.22;;;6.90;100.00
23229;BME280;11783;50.350;6.576;2023-04-02T04:38:14;95631.47;;;6.89;100.00
23229;BME280;11783;50.350;6.576;2023-04-02T04:40:44;95631.09;;;6.97;100.00
23229;BME280;11783;50.350;6.576;2023-04-02T04:43:19;95639.09;;;7.02;100.00
23229;BME280;11783;50.350;6.576;2023-04-02T04:45:54;95640.06;;;6.96;100.00
23229;BME280;11783;50.350;6.576;2023-04-02T04:48:35;95645.47;;;6.89;100.00
23229;BME280;11783;50.350;6.576;2023-04-02T04:51:14;95653.41;;;6.89;100.00
23229;BME280;11783;50.350;6.576;2023-04-02T04:53:47;95656.84;;;6.90;100.00
23229;BME280;11783;50.350;6.576;2023-04-02T04:56:16;95662.13;;;6.90;100.00
23229;BME280;11783;50.350;6.576;2023-04-02T04:58:54;95672.78;;;6.95;100.00
23229;BME280;11783;50.350;6.576;2023-04-02T05:04:30;95678.00;;;6.31;100.00
23229;BME280;11783;50.350;6.576;2023-04-02T05:07:11;95683.50;;;6.65;100.00
23229;BME280;11783;50.350;6.576;2023-04-02T05:09:39;95697.63;;;6.59;100.00
23229;BME280;11783;50.350;6.576;2023-04-02T05:15:45;95696.84;;;6.70;100.00
23229;BME280;11783;50.350;6.576;2023-04-02T05:17:56;95702.22;;;6.75;100.00
23229;BME280;11783;50.350;6.576;2023-04-02T05:20:47;95710.47;;;6.67;100.00
23229;BME280;11783;50.350;6.576;2023-04-02T05:23:22;95715.22;;;6.53;100.00
23229;BME280;11783;50.350;6.576;2023-04-02T05:26:11;95714.53;;;6.58;100.00
23229;BME280;11783;50.350;6.576;2023-04-02T05:34:06;95730.94;;;6.60;100.00
23229;BME280;11783;50.350;6.576;2023-04-02T05:36:33;95730.56;;;6.68;100.00
23229;BME280;11783;50.350;6.576;2023-04-02T05:38:59;95745.84;;;6.54;100.00
23229;BME280;11783;50.350;6.576;2023-04-02T05:46:45;95753.19;;;6.41;100.00
23229;BME280;11783;50.350;6.576;2023-04-02T05:52:01;95757.88;;;6.27;100.00
23229;BME280;11783;50.350;6.576;2023-04-02T05:54:37;95770.53;;;6.36;100.00
23229;BME280;11783;50.350;6.576;2023-04-02T05:57:12;95782.91;;;6.48;100.00
23229;BME280;11783;50.350;6.576;2023-04-02T05:59:46;95775.38;;;6.51;100.00
23229;BME280;11783;50.350;6.576;2023-04-02T06:02:18;95774.56;;;6.51;100.00
23229;BME280;11783;50.350;6.576;2023-04-02T06:07:23;95788.78;;;6.08;100.00
23229;BME280;11783;50.350;6.576;2023-04-02T06:10:04;95793.53;;;5.88;100.00
23229;BME280;11783;50.350;6.576;2023-04-02T06:12:47;95797.50;;;6.08;100.00
23229;BME280;11783;50.350;6.576;2023-04-02T06:15:18;95805.19;;;6.10;100.00
23229;BME280;11783;50.350;6.576;2023-04-02T06:17:58;95816.63;;;5.56;100.00
23229;BME280;11783;50.350;6.576;2023-04-02T06:20:24;95824.53;;;5.92;100.00
23229;BME280;11783;50.350;6.576;2023-04-02T06:22:59;95824.06;;;6.14;100.00
23229;BME280;11783;50.350;6.576;2023-04-02T06:25:29;95831.41;;;6.23;100.00
23229;BME280;11783;50.350;6.576;2023-04-02T06:27:59;95835.25;;;6.09;100.00
23229;BME280;11783;50.350;6.576;2023-04-02T06:30:32;95854.56;;;5.73;100.00
23229;BME280;11783;50.350;6.576;2023-04-02T06:32:58;95855.16;;;5.93;100.00
23229;BME280;11783;50.350;6.576;2023-04-02T06:35:23;95853.59;;;6.04;100.00
23229;BME280;11783;50.350;6.576;2023-04-02T06:37:52;95857.66;;;6.18;100.00
23229;BME280;11783;50.350;6.576;2023-04-02T06:42:51;95867.22;;;5.83;100.00
23229;BME280;11783;50.350;6.576;2023-04-02T06:45:27;95876.09;;;5.88;100.00
23229;BME280;11783;50.350;6.576;2023-04-02T06:47:56;95880.50;;;5.94;100.00
23229;BME280;11783;50.350;6.576;2023-04-02T06:50:44;95881.00;;;5.66;100.00
23229;BME280;11783;50.350;6.576;2023-04-02T06:53:39;95895.72;;;5.92;100.00
23229;BME280;11783;50.350;6.576;2023-04-02T06:58:57;95903.13;;;5.65;100.00
23229;BME280;11783;50.350;6.576;2023-04-02T07:01:28;95908.91;;;5.74;100.00
23229;BME280;11783;50.350;6.576;2023-04-02T07:03:55;95912.34;;;5.56;100.00
23229;BME280;11783;50.350;6.576;2023-04-02T07:06:21;95919.06;;;5.52;100.00
23229;BME280;11783;50.350;6.576;2023-04-02T07:08:47;95923.91;;;5.73;100.00
23229;BME280;11783;50.350;6.576;2023-04-02T07:11:14;95934.75;;;5.47;100.00
23229;BME280;11783;50.350;6.576;2023-04-02T07:13:42;95933.03;;;5.34;100.00
23229;BME280;11783;50.350;6.576;2023-04-02T07:16:19;95949.63;;;5.60;100.00
23229;BME280;11783;50.350;6.576;2023-04-02T07:18:46;95951.59;;;5.64;100.00
23229;BME280;11783;50.350;6.576;2023-04-02T07:21:11;95967.44;;;5.64;100.00
23229;BME280;11783;50.350;6.576;2023-04-02T07:23:37;95962.94;;;5.46;100.00
23229;BME280;11783;50.350;6.576;2023-04-02T07:26:05;95978.25;;;5.56;100.00
23229;BME280;11783;50.350;6.576;2023-04-02T07:28:31;95981.84;;;5.62;100.00
23229;BME280;11783;50.350;6.576;2023-04-02T07:30:56;95972.53;;;5.41;100.00
23229;BME280;11783;50.350;6.576;2023-04-02T07:33:24;95985.91;;;5.39;100.00
23229;BME280;11783;50.350;6.576;2023-04-02T07:35:51;95984.28;;;5.13;100.00
23229;BME280;11783;50.350;6.576;2023-04-02T07:38:17;95992.38;;;5.43;100.00
23229;BME280;11783;50.350;6.576;2023-04-02T07:40:42;96007.44;;;5.55;100.00
23229;BME280;11783;50.350;6.576;2023-04-02T07:43:08;96007.34;;;5.68;100.00
23229;BME280;11783;50.350;6.576;2023-04-02T07:45:33;96010.06;;;5.61;100.00
23229;BME280;11783;50.350;6.576;2023-04-02T07:48:10;96015.97;;;5.75;100.00
23229;BME280;11783;50.350;6.576;2023-04-02T07:50:36;96020.81;;;5.60;100.00
23229;BME280;11783;50.350;6.576;2023-04-02T07:53:03;96025.22;;;5.66;100.00
23229;BME280;11783;50.350;6.576;2023-04-02T07:55:28;96031.41;;;5.53;100.00
23229;BME280;11783;50.350;6.576;2023-04-02T07:57:56;96024.66;;;5.57;100.00
23229;BME280;11783;50.350;6.576;2023-04-02T08:00:26;96043.13;;;5.32;100.00
23229;BME280;11783;50.350;6.576;2023-04-02T08:02:53;96037.47;;;5.04;100.00
23229;BME280;11783;50.350;6.576;2023-04-02T08:05:18;96046.56;;;5.01;100.00
23229;BME280;11783;50.350;6.576;2023-04-02T08:07:55;96049.09;;;4.83;100.00
23229;BME280;11783;50.350;6.576;2023-04-02T08:10:21;96055.91;;;5.04;100.00
23229;BME280;11783;50.350;6.576;2023-04-02T08:12:47;96054.53;;;5.26;100.00
23229;BME280;11783;50.350;6.576;2023-04-02T08:15:14;96066.13;;;5.18;100.00
23229;BME280;11783;50.350;6.576;2023-04-02T08:17:41;96068.78;;;5.43;100.00
23229;BME280;11783;50.350;6.576;2023-04-02T08:20:14;96083.28;;;5.28;100.00
23229;BME280;11783;50.350;6.576;2023-04-02T08:22:39;96086.97;;;5.20;100.00
23229;BME280;11783;50.350;6.576;2023-04-02T08:25:05;96085.84;;;5.09;100.00
23229;BME280;11783;50.350;6.576;2023-04-02T08:27:31;96096.53;;;5.21;100.00
23229;BME280;11783;50.350;6.576;2023-04-02T08:29:56;96095.91;;;5.19;100.00
23229;BME280;11783;50.350;6.576;2023-04-02T08:32:21;96093.47;;;5.24;100.00
23229;BME280;11783;50.350;6.576;2023-04-02T08:34:48;96102.03;;;5.13;100.00
23229;BME280;11783;50.350;6.576;2023-04-02T08:37:14;96102.72;;;5.33;100.00
23229;BME280;11783;50.350;6.576;2023-04-02T08:39:39;96112.25;;;4.96;100.00
23229;BME280;11783;50.350;6.576;2023-04-02T08:44:59;96118.16;;;4.92;100.00
23229;BME280;11783;50.350;6.576;2023-04-02T08:47:32;96123.63;;;4.90;100.00
23229;BME280;11783;50.350;6.576;2023-04-02T08:50:27;96127.22;;;5.02;100.00
23229;BME280;11783;50.350;6.576;2023-04-02T08:52:50;96122.69;;;5.16;100.00
23229;BME280;11783;50.350;6.576;2023-04-02T08:55:25;96129.66;;;5.35;100.00
23229;BME280;11783;50.350;6.576;2023-04-02T09:00:40;96139.84;;;5.57;100.00
23229;BME280;11783;50.350;6.576;2023-04-02T09:03:18;96142.88;;;5.29;100.00
23229;BME280;11783;50.350;6.576;2023-04-02T09:05:47;96154.25;;;5.61;100.00
23229;BME280;11783;50.350;6.576;2023-04-02T09:08:22;96157.84;;;5.35;100.00
23229;BME280;11783;50.350;6.576;2023-04-02T09:11:05;96162.06;;;5.42;100.00
23229;BME280;11783;50.350;6.576;2023-04-02T09:13:33;96165.19;;;5.58;100.00
23229;BME280;11783;50.350;6.576;2023-04-02T09:16:11;96178.25;;;5.46;100.00
23229;BME280;11783;50.350;6.576;2023-04-02T09:18:38;96183.47;;;5.53;100.00
23229;BME280;11783;50.350;6.576;2023-04-02T09:23:45;96187.72;;;5.60;100.00
23229;BME280;11783;50.350;6.576;2023-04-02T09:26:24;96195.41;;;5.55;100.00
23229;BME280;11783;50.350;6.576;2023-04-02T09:28:55;96194.00;;;5.21;100.00
23229;BME280;11783;50.350;6.576;2023-04-02T09:31:33;96198.25;;;5.15;100.00
23229;BME280;11783;50.350;6.576;2023-04-02T09:34:00;96207.88;;;5.41;100.00
23229;BME280;11783;50.350;6.576;2023-04-02T09:36:39;96217.84;;;5.39;100.00
23229;BME280;11783;50.350;6.576;2023-04-02T09:39:05;96219.50;;;5.27;100.00
23229;BME280;11783;50.350;6.576;2023-04-02T09:41:39;96223.16;;;5.20;100.00
23229;BME280;11783;50.350;6.576;2023-04-02T09:44:20;96232.84;;;5.32;100.00
23229;BME280;11783;50.350;6.576;2023-04-02T09:46:51;96236.41;;;5.51;100.00
23229;BME280;11783;50.350;6.576;2023-04-02T09:49:17;96242.91;;;5.48;100.00
23229;BME280;11783;50.350;6.576;2023-04-02T09:51:43;96243.56;;;5.75;100.00
23229;BME280;11783;50.350;6.576;2023-04-02T09:54:15;96250.66;;;5.75;100.00
23229;BME280;11783;50.350;6.576;2023-04-02T09:56:59;96259.72;;;5.92;100.00
23229;BME280;11783;50.350;6.576;2023-04-02T09:59:25;96254.88;;;5.96;100.00
23229;BME280;11783;50.350;6.576;2023-04-02T10:04:42;96267.13;;;5.32;100.00
23229;BME280;11783;50.350;6.576;2023-04-02T10:10:02;96290.22;;;5.30;100.00
23229;BME280;11783;50.350;6.576;2023-04-02T10:12:39;96289.00;;;5.39;100.00
23229;BME280;11783;50.350;6.576;2023-04-02T10:15:06;96293.94;;;5.09;100.00
23229;BME280;11783;50.350;6.576;2023-04-02T10:17:38;96304.34;;;4.58;100.00
23229;BME280;11783;50.350;6.576;2023-04-02T10:20:30;96309.19;;;4.88;100.00
23229;BME280;11783;50.350;6.576;2023-04-02T10:22:57;96316.59;;;5.30;100.00
23229;BME280;11783;50.350;6.576;2023-04-02T10:25:25;96316.09;;;5.60;100.00
23229;BME280;11783;50.350;6.576;2023-04-02T10:28:06;96317.03;;;5.72;100.00
23229;BME280;11783;50.350;6.576;2023-04-02T10:30:53;96319.88;;;4.99;100.00
23229;BME280;11783;50.350;6.576;2023-04-02T10:33:43;96321.50;;;5.13;100.00
23229;BME280;11783;50.350;6.576;2023-04-02T10:44:04;96338.66;;;5.36;100.00
23229;BME280;11783;50.350;6.576;2023-04-02T10:46:58;96333.94;;;5.51;100.00
23229;BME280;11783;50.350;6.576;2023-04-02T10:49:39;96356.38;;;5.73;100.00
23229;BME280;11783;50.350;6.576;2023-04-02T10:52:23;96348.84;;;5.84;100.00
23229;BME280;11783;50.350;6.576;2023-04-02T10:54:53;96351.81;;;5.49;100.00
23229;BME280;11783;50.350;6.576;2023-04-02T10:57:39;96362.66;;;5.72;100.00
23229;BME280;11783;50.350;6.576;2023-04-02T11:03:28;96366.22;;;5.46;100.00
23229;BME280;11783;50.350;6.576;2023-04-02T11:05:57;96367.13;;;5.72;100.00
23229;BME280;11783;50.350;6.576;2023-04-02T11:08:25;96377.03;;;5.96;100.00
23229;BME280;11783;50.350;6.576;2023-04-02T11:11:08;96385.94;;;5.95;100.00
23229;BME280;11783;50.350;6.576;2023-04-02T11:16:11;96394.16;;;5.54;100.00
23229;BME280;11783;50.350;6.576;2023-04-02T11:18:39;96390.31;;;5.50;100.00
23229;BME280;11783;50.350;6.576;2023-04-02T11:21:07;96405.88;;;5.71;100.00
23229;BME280;11783;50.350;6.576;2023-04-02T11:24:01;96415.09;;;5.29;100.00
23229;BME280;11783;50.350;6.576;2023-04-02T11:29:23;96412.50;;;5.23;100.00
23229;BME280;11783;50.350;6.576;2023-04-02T11:31:51;96422.78;;;5.37;100.00
23229;BME280;11783;50.350;6.576;2023-04-02T11:39:56;96433.13;;;5.45;100.00
23229;BME280;11783;50.350;6.576;2023-04-02T11:44:49;96434.78;;;4.94;100.00
23229;BME280;11783;50.350;6.576;2023-04-02T11:47:22;96439.22;;;5.00;100.00
23229;BME280;11783;50.350;6.576;2023-04-02T11:55:26;96451.41;;;5.07;100.00
23229;BME280;11783;50.350;6.576;2023-04-02T11:57:58;96455.47;;;5.23;100.00
23229;BME280;11783;50.350;6.576;2023-04-02T12:09:27;96463.94;;;4.66;100.00
23229;BME280;11783;50.350;6.576;2023-04-02T12:11:55;96469.41;;;4.97;100.00
23229;BME280;11783;50.350;6.576;2023-04-02T12:14:29;96471.03;;;4.92;100.00
23229;BME280;11783;50.350;6.576;2023-04-02T12:16:56;96472.25;;;4.96;100.00
23229;BME280;11783;50.350;6.576;2023-04-02T12:19:22;96479.69;;;4.59;100.00
23229;BME280;11783;50.350;6.576;2023-04-02T12:21:50;96477.69;;;4.74;100.00
23229;BME280;11783;50.350;6.576;2023-04-02T12:24:20;96482.97;;;4.68;100.00
23229;BME280;11783;50.350;6.576;2023-04-02T12:26:47;96492.03;;;4.52;100.00
23229;BME280;11783;50.350;6.576;2023-04-02T12:29:14;96489.44;;;4.65;100.00
23229;BME280;11783;50.350;6.576;2023-04-02T12:31:44;96487.78;;;4.64;100.00
23229;BME280;11783;50.350;6.576;2023-04-02T12:34:16;96494.31;;;4.75;100.00
23229;BME280;11783;50.350;6.576;2023-04-02T12:36:59;96494.53;;;4.86;100.00
23229;BME280;11783;50.350;6.576;2023-04-02T12:39:26;96492.50;;;4.75;100.00
23229;BME280;11783;50.350;6.576;2023-04-02T12:41:52;96502.66;;;5.05;100.00
23229;BME280;11783;50.350;6.576;2023-04-02T12:44:20;96499.16;;;4.71;100.00
23229;BME280;11783;50.350;6.576;2023-04-02T12:46:48;96502.63;;;4.78;100.00
23229;BME280;11783;50.350;6.576;2023-04-02T12:52:10;96515.13;;;4.50;100.00
23229;BME280;11783;50.350;6.576;2023-04-02T12:54:47;96518.97;;;4.61;100.00
23229;BME280;11783;50.350;6.576;2023-04-02T12:59:56;96522.13;;;5.10;100.00
23229;BME280;11783;50.350;6.576;2023-04-02T13:02:29;96525.53;;;4.98;100.00
23229;BME280;11783;50.350;6.576;2023-04-02T13:04:58;96531.31;;;4.53;100.00
23229;BME280;11783;50.350;6.576;2023-04-02T13:07:28;96530.56;;;4.66;100.00
23229;BME280;11783;50.350;6.576;2023-04-02T13:09:56;96533.19;;;4.79;100.00
23229;BME280;11783;50.350;6.576;2023-04-02T13:14:57;96527.53;;;4.76;100.00
23229;BME280;11783;50.350;6.576;2023-04-02T13:17:40;96530.16;;;4.69;100.00
23229;BME280;11783;50.350;6.576;2023-04-02T13:20:37;96532.44;;;4.99;100.00
23229;BME280;11783;50.350;6.576;2023-04-02T13:25:59;96538.81;;;4.50;100.00
23229;BME280;11783;50.350;6.576;2023-04-02T13:28:25;96545.69;;;4.57;100.00
23229;BME280;11783;50.350;6.576;2023-04-02T13:30:51;96549.78;;;4.67;100.00
23229;BME280;11783;50.350;6.576;2023-04-02T13:33:16;96551.84;;;4.78;100.00
23229;BME280;11783;50.350;6.576;2023-04-02T13:35:43;96552.22;;;4.75;100.00
23229;BME280;11783;50.350;6.576;2023-04-02T13:38:08;96552.16;;;4.55;100.00
23229;BME280;11783;50.350;6.576;2023-04-02T13:40:35;96561.50;;;4.64;100.00
23229;BME280;11783;50.350;6.576;2023-04-02T13:43:02;96562.63;;;4.90;100.00
23229;BME280;11783;50.350;6.576;2023-04-02T13:45:31;96564.41;;;4.82;100.00
23229;BME280;11783;50.350;6.576;2023-04-02T13:47:57;96560.38;;;4.86;100.00
23229;BME280;11783;50.350;6.576;2023-04-02T13:50:26;96562.22;;;4.99;100.00
23229;BME280;11783;50.350;6.576;2023-04-02T13:52:53;96573.97;;;4.97;100.00
23229;BME280;11783;50.350;6.576;2023-04-02T13:55:23;96570.75;;;5.14;100.00
23229;BME280;11783;50.350;6.576;2023-04-02T13:57:49;96584.94;;;5.20;100.00
23229;BME280;11783;50.350;6.576;2023-04-02T14:00:15;96586.38;;;5.16;100.00
23229;BME280;11783;50.350;6.576;2023-04-02T14:02:44;96585.69;;;4.88;100.00
23229;BME280;11783;50.350;6.576;2023-04-02T14:05:21;96592.59;;;4.89;100.00
23229;BME280;11783;50.350;6.576;2023-04-02T14:08:10;96598.34;;;4.64;100.00
23229;BME280;11783;50.350;6.576;2023-04-02T14:11:01;96598.00;;;4.67;100.00
23229;BME280;11783;50.350;6.576;2023-04-02T14:13:49;96601.19;;;4.63;100.00
23229;BME280;11783;50.350;6.576;2023-04-02T14:16:35;96596.19;;;4.74;100.00
23229;BME280;11783;50.350;6.576;2023-04-02T14:25:06;96601.25;;;4.76;100.00
23229;BME280;11783;50.350;6.576;2023-04-02T14:30:29;96605.38;;;4.92;100.00
23229;BME280;11783;50.350;6.576;2023-04-02T14:33:02;96609.25;;;5.02;100.00
23229;BME280;11783;50.350;6.576;2023-04-02T14:35:37;96615.91;;;4.98;100.00
23229;BME280;11783;50.350;6.576;2023-04-02T14:40:48;96613.44;;;4.42;100.00
23229;BME280;11783;50.350;6.576;2023-04-02T14:43:24;96623.09;;;4.70;100.00
23229;BME280;11783;50.350;6.576;2023-04-02T14:46:00;96625.34;;;4.66;100.00
23229;BME280;11783;50.350;6.576;2023-04-02T14:48:43;96626.16;;;4.80;100.00
23229;BME280;11783;50.350;6.576;2023-04-02T14:56:39;96633.84;;;4.68;100.00
23229;BME280;11783;50.350;6.576;2023-04-02T15:01:59;96645.41;;;4.74;100.00
23229;BME280;11783;50.350;6.576;2023-04-02T15:04:39;96644.19;;;4.70;100.00
23229;BME280;11783;50.350;6.576;2023-04-02T15:07:30;96648.09;;;4.87;100.00
23229;BME280;11783;50.350;6.576;2023-04-02T15:10:13;96649.94;;;4.93;100.00
23229;BME280;11783;50.350;6.576;2023-04-02T15:12:42;96652.66;;;4.65;100.00
23229;BME280;11783;50.350;6.576;2023-04-02T15:15:37;96654.78;;;4.90;100.00
23229;BME280;11783;50.350;6.576;2023-04-02T15:18:08;96648.50;;;4.84;100.00
23229;BME280;11783;50.350;6.576;2023-04-02T15:28:38;96657.81;;;4.86;100.00
23229;BME280;11783;50.350;6.576;2023-04-02T15:31:11;96659.44;;;4.88;100.00
23229;BME280;11783;50.350;6.576;2023-04-02T15:33:42;96669.72;;;4.82;100.00
23229;BME280;11783;50.350;6.576;2023-04-02T15:36:29;96670.59;;;4.96;100.00
23229;BME280;11783;50.350;6.576;2023-04-02T15:41:59;96681.66;;;4.78;100.00
23229;BME280;11783;50.350;6.576;2023-04-02T15:44:27;96683.00;;;4.61;100.00
23229;BME280;11783;50.350;6.576;2023-04-02T15:47:15;96690.97;;;4.74;100.00
23229;BME280;11783;50.350;6.576;2023-04-02T15:49:46;96694.41;;;4.68;100.00
23229;BME280;11783;50.350;6.576;2023-04-02T16:03:10;96714.59;;;4.61;100.00
23229;BME280;11783;50.350;6.576;2023-04-02T16:05:42;96715.50;;;4.81;100.00
23229;BME280;11783;50.350;6.576;2023-04-02T16:11:14;96731.78;;;4.57;100.00
23229;BME280;11783;50.350;6.576;2023-04-02T16:13:41;96727.34;;;4.64;100.00
23229;BME280;11783;50.350;6.576;2023-04-02T16:16:24;96728.25;;;4.78;100.00
23229;BME280;11783;50.350;6.576;2023-04-02T16:22:03;96726.88;;;4.47;100.00
23229;BME280;11783;50.350;6.576;2023-04-02T16:24:29;96743.59;;;4.68;100.00
23229;BME280;11783;50.350;6.576;2023-04-02T16:35:34;96752.13;;;5.04;100.00
23229;BME280;11783;50.350;6.576;2023-04-02T16:41:01;96751.50;;;5.02;100.00
23229;BME280;11783;50.350;6.576;2023-04-02T16:43:45;96769.38;;;4.79;100.00